createdAt,value
2019-03-29T00:00:28.831Z,5.00
2019-03-29T00:01:29.019Z,5.20
2019-03-29T00:02:29.213Z,4.90
2019-03-29T00:03:29.394Z,5.20
2019-03-29T00:04:29.585Z,5.00
2019-03-29T00:05:29.773Z,5.00
2019-03-29T00:06:29.959Z,4.90
2019-03-29T00:07:39.569Z,4.90
2019-03-29T00:08:30.395Z,5.30
2019-03-29T00:09:30.510Z,5.60
2019-03-29T00:10:30.697Z,5.60
2019-03-29T00:11:30.889Z,5.20
2019-03-29T00:12:31.269Z,5.50
2019-03-29T00:13:31.279Z,5.50
2019-03-29T00:14:31.456Z,5.00
2019-03-29T00:15:31.648Z,5.60
2019-03-29T00:16:31.826Z,4.70
2019-03-29T00:17:32.070Z,4.80
2019-03-29T00:18:32.254Z,5.30
2019-03-29T00:19:32.443Z,5.30
2019-03-29T00:20:32.629Z,5.50
2019-03-29T00:21:32.822Z,5.60
2019-03-29T00:22:32.999Z,5.50
2019-03-29T00:23:33.187Z,5.10
2019-03-29T00:24:33.369Z,5.60
2019-03-29T00:25:33.567Z,5.20
2019-03-29T00:26:33.749Z,5.00
2019-03-29T00:27:33.929Z,5.00
2019-03-29T00:28:34.114Z,5.20
2019-03-29T00:29:34.306Z,5.60
2019-03-29T00:30:34.502Z,5.50
2019-03-29T00:31:34.684Z,5.20
2019-03-29T00:32:34.865Z,6.00
2019-03-29T00:33:35.050Z,5.50
2019-03-29T00:34:35.240Z,5.10
2019-03-29T00:35:35.426Z,5.10
2019-03-29T00:36:35.615Z,6.00
2019-03-29T00:37:35.802Z,5.80
2019-03-29T00:38:35.994Z,4.90
2019-03-29T00:39:36.172Z,4.90
2019-03-29T00:40:36.355Z,5.50
2019-03-29T00:41:36.543Z,5.50
2019-03-29T00:42:36.731Z,6.10
2019-03-29T00:43:36.915Z,5.60
2019-03-29T00:44:37.121Z,5.50
2019-03-29T00:45:37.295Z,5.80
2019-03-29T00:46:37.905Z,5.10
2019-03-29T00:47:37.663Z,6.10
2019-03-29T00:48:37.847Z,5.50
2019-03-29T00:49:38.035Z,6.00
2019-03-29T00:50:38.216Z,5.60
2019-03-29T00:51:38.401Z,5.80
2019-03-29T00:52:38.583Z,6.20
2019-03-29T00:53:38.772Z,5.60
2019-03-29T00:54:38.960Z,6.30
2019-03-29T00:55:39.143Z,6.30
2019-03-29T00:56:39.331Z,6.40
2019-03-29T00:57:39.514Z,6.30
2019-03-29T00:58:39.707Z,5.30
2019-03-29T00:59:40.195Z,6.30
2019-03-29T01:00:40.078Z,6.10
2019-03-29T01:01:40.266Z,6.00
2019-03-29T01:02:40.452Z,6.00
2019-03-29T01:03:40.638Z,5.60
2019-03-29T01:04:40.829Z,5.40
2019-03-29T01:05:41.015Z,6.20
2019-03-29T01:06:41.204Z,6.40
2019-03-29T01:07:41.395Z,5.80
2019-03-29T01:08:41.580Z,6.10
2019-03-29T01:09:41.773Z,5.20
2019-03-29T01:10:41.964Z,5.90
2019-03-29T01:11:42.140Z,6.70
2019-03-29T01:12:42.323Z,5.80
2019-03-29T01:13:42.511Z,5.90
2019-03-29T01:14:42.996Z,5.90
2019-03-29T01:15:42.889Z,6.10
2019-03-29T01:16:43.074Z,6.50
2019-03-29T01:17:43.261Z,5.90
2019-03-29T01:18:43.449Z,6.20
2019-03-29T01:19:43.627Z,6.40
2019-03-29T01:20:43.811Z,6.50
2019-03-29T01:21:44.002Z,6.30
2019-03-29T01:22:44.191Z,5.90
2019-03-29T01:23:44.426Z,6.00
2019-03-29T01:24:44.578Z,6.20
2019-03-29T01:25:44.780Z,6.20
2019-03-29T01:26:44.966Z,6.10
2019-03-29T01:27:45.389Z,6.30
2019-03-29T01:28:45.346Z,6.60
2019-03-29T01:29:45.536Z,6.10
2019-03-29T01:30:45.722Z,6.30
2019-03-29T01:31:45.912Z,6.70
2019-03-29T01:32:46.106Z,6.40
2019-03-29T01:33:46.291Z,6.40
2019-03-29T01:34:46.477Z,6.30
2019-03-29T01:35:46.666Z,5.70
2019-03-29T01:36:46.932Z,6.40
2019-03-29T01:37:47.031Z,6.00
2019-03-29T01:38:47.230Z,6.10
2019-03-29T01:39:47.412Z,6.30
2019-03-29T01:40:47.606Z,6.50
2019-03-29T01:41:47.786Z,5.70
2019-03-29T01:42:47.974Z,6.60
2019-03-29T01:43:48.164Z,6.30
2019-03-29T01:44:48.342Z,6.30
2019-03-29T01:45:48.533Z,6.40
2019-03-29T01:46:48.718Z,6.10
2019-03-29T01:47:48.899Z,6.80
2019-03-29T01:48:49.353Z,6.60
2019-03-29T01:49:49.277Z,6.70
2019-03-29T01:50:49.464Z,6.50
2019-03-29T01:51:49.657Z,6.70
2019-03-29T01:52:49.856Z,7.20
2019-03-29T01:53:50.039Z,7.10
2019-03-29T01:54:50.216Z,7.10
2019-03-29T01:55:50.405Z,7.90
2019-03-29T01:56:50.588Z,8.00
2019-03-29T01:57:50.767Z,6.50
2019-03-29T01:58:51.001Z,7.40
2019-03-29T01:59:51.143Z,7.70
2019-03-29T02:00:51.333Z,7.70
2019-03-29T02:01:51.545Z,7.20
2019-03-29T02:02:51.695Z,7.30
2019-03-29T02:03:51.885Z,7.20
2019-03-29T02:04:52.075Z,7.70
2019-03-29T02:05:52.257Z,7.60
2019-03-29T02:06:52.450Z,7.80
2019-03-29T02:07:52.636Z,7.40
2019-03-29T02:08:52.821Z,7.10
2019-03-29T02:09:53.004Z,7.30
2019-03-29T02:10:53.191Z,7.30
2019-03-29T02:11:53.379Z,7.50
2019-03-29T02:12:53.566Z,7.00
2019-03-29T02:13:53.748Z,7.90
2019-03-29T02:14:53.940Z,8.40
2019-03-29T02:15:54.126Z,7.90
2019-03-29T02:16:54.316Z,8.00
2019-03-29T02:17:54.498Z,7.80
2019-03-29T02:18:54.700Z,7.40
2019-03-29T02:19:54.866Z,7.50
2019-03-29T02:20:55.050Z,7.70
2019-03-29T02:21:55.238Z,7.10
2019-03-29T02:22:55.414Z,7.60
2019-03-29T02:23:56.940Z,7.60
2019-03-29T02:24:55.792Z,7.50
2019-03-29T02:25:55.984Z,7.00
2019-03-29T02:26:56.172Z,7.80
2019-03-29T02:27:56.353Z,8.10
2019-03-29T02:28:56.545Z,7.50
2019-03-29T02:29:56.735Z,6.80
2019-03-29T02:30:56.927Z,7.20
2019-03-29T02:31:57.198Z,7.60
2019-03-29T02:32:57.301Z,7.80
2019-03-29T02:33:57.503Z,7.60
2019-03-29T02:34:57.686Z,7.80
2019-03-29T02:35:57.871Z,7.30
2019-03-29T02:36:58.053Z,7.30
2019-03-29T02:37:58.238Z,8.00
2019-03-29T02:38:59.204Z,8.60
2019-03-29T02:39:58.618Z,8.00
2019-03-29T02:40:58.802Z,7.90
2019-03-29T02:41:58.991Z,8.00
2019-03-29T02:42:59.294Z,7.80
2019-03-29T02:43:59.364Z,7.50
2019-03-29T02:44:59.553Z,7.90
2019-03-29T02:45:59.737Z,8.20
2019-03-29T02:46:59.918Z,7.40
2019-03-29T02:48:00.129Z,7.30
2019-03-29T02:49:00.308Z,8.30
2019-03-29T02:50:00.536Z,7.50
2019-03-29T02:51:00.726Z,8.00
2019-03-29T02:52:00.872Z,7.60
2019-03-29T02:53:01.061Z,8.00
2019-03-29T02:54:01.246Z,8.60
2019-03-29T02:55:01.443Z,7.80
2019-03-29T02:56:01.617Z,8.10
2019-03-29T02:57:01.799Z,7.50
2019-03-29T02:58:01.996Z,8.30
2019-03-29T02:59:02.184Z,8.40
2019-03-29T03:00:02.387Z,8.50
2019-03-29T03:01:02.557Z,8.00
2019-03-29T03:02:02.749Z,7.90
2019-03-29T03:03:02.940Z,8.00
2019-03-29T03:04:03.129Z,8.10
2019-03-29T03:05:03.310Z,7.70
2019-03-29T03:06:03.491Z,8.40
2019-03-29T03:07:03.774Z,7.20
2019-03-29T03:08:03.863Z,7.90
2019-03-29T03:09:13.193Z,8.40
2019-03-29T03:10:04.256Z,7.90
2019-03-29T03:11:04.441Z,8.60
2019-03-29T03:12:04.612Z,9.00
2019-03-29T03:13:04.799Z,8.10
2019-03-29T03:14:04.978Z,8.90
2019-03-29T03:15:05.171Z,8.50
2019-03-29T03:16:05.352Z,8.10
2019-03-29T03:17:05.540Z,8.50
2019-03-29T03:18:05.727Z,8.30
2019-03-29T03:19:05.922Z,8.50
2019-03-29T03:20:06.112Z,8.10
2019-03-29T03:21:06.294Z,8.30
2019-03-29T03:22:06.482Z,8.90
2019-03-29T03:23:06.663Z,9.00
2019-03-29T03:24:06.851Z,9.00
2019-03-29T03:25:07.032Z,9.10
2019-03-29T03:26:07.221Z,8.20
2019-03-29T03:27:07.397Z,9.00
2019-03-29T03:28:07.588Z,8.60
2019-03-29T03:29:07.765Z,8.80
2019-03-29T03:30:07.952Z,8.90
2019-03-29T03:31:08.138Z,8.70
2019-03-29T03:32:08.351Z,9.00
2019-03-29T03:33:08.554Z,8.80
2019-03-29T03:34:08.697Z,9.00
2019-03-29T03:35:08.878Z,9.10
2019-03-29T03:36:09.060Z,9.10
2019-03-29T03:37:09.249Z,9.00
2019-03-29T03:38:09.441Z,9.70
2019-03-29T03:39:09.620Z,8.40
2019-03-29T03:40:09.808Z,8.90
2019-03-29T03:41:10.006Z,8.90
2019-03-29T03:42:10.194Z,8.90
2019-03-29T03:43:10.363Z,8.30
2019-03-29T03:44:10.548Z,9.50
2019-03-29T03:45:10.732Z,8.70
2019-03-29T03:46:10.918Z,9.40
2019-03-29T03:47:11.113Z,9.10
2019-03-29T03:48:11.294Z,8.80
2019-03-29T03:49:11.485Z,9.60
2019-03-29T03:50:11.668Z,9.50
2019-03-29T03:51:11.855Z,8.70
2019-03-29T03:52:12.043Z,9.10
2019-03-29T03:53:12.251Z,8.90
2019-03-29T03:54:12.432Z,9.70
2019-03-29T03:55:12.613Z,9.40
2019-03-29T03:56:12.802Z,9.80
2019-03-29T03:57:13.003Z,9.10
2019-03-29T03:58:13.182Z,9.70
2019-03-29T03:59:13.371Z,9.80
2019-03-29T04:00:13.552Z,10.00
2019-03-29T04:01:13.739Z,9.20
2019-03-29T04:02:13.929Z,9.70
2019-03-29T04:03:14.112Z,9.90
2019-03-29T04:04:14.296Z,9.80
2019-03-29T04:05:14.501Z,9.40
2019-03-29T04:06:14.677Z,9.60
2019-03-29T04:07:14.870Z,9.70
2019-03-29T04:08:15.052Z,9.90
2019-03-29T04:09:15.257Z,9.00
2019-03-29T04:10:15.430Z,9.20
2019-03-29T04:11:15.614Z,9.10
2019-03-29T04:12:15.806Z,9.20
2019-03-29T04:13:15.990Z,9.60
2019-03-29T04:14:16.189Z,10.00
2019-03-29T04:15:16.364Z,10.20
2019-03-29T04:16:16.549Z,9.40
2019-03-29T04:17:16.740Z,10.60
2019-03-29T04:18:16.993Z,9.20
2019-03-29T04:19:17.170Z,10.00
2019-03-29T04:20:17.304Z,9.90
2019-03-29T04:21:17.512Z,9.60
2019-03-29T04:22:17.678Z,9.40
2019-03-29T04:23:17.863Z,9.80
2019-03-29T04:24:18.050Z,10.00
2019-03-29T04:25:18.236Z,9.60
2019-03-29T04:26:18.425Z,9.50
2019-03-29T04:27:18.620Z,9.80
2019-03-29T04:28:18.795Z,9.60
2019-03-29T04:29:18.996Z,10.20
2019-03-29T04:30:19.175Z,9.20
2019-03-29T04:31:19.365Z,9.10
2019-03-29T04:32:19.549Z,9.50
2019-03-29T04:33:19.733Z,9.70
2019-03-29T04:34:19.928Z,10.20
2019-03-29T04:35:20.198Z,10.50
2019-03-29T04:36:20.301Z,10.20
2019-03-29T04:37:20.478Z,9.80
2019-03-29T04:38:20.670Z,10.10
2019-03-29T04:39:20.869Z,10.20
2019-03-29T04:40:21.053Z,10.40
2019-03-29T04:41:21.243Z,9.70
2019-03-29T04:42:21.441Z,9.70
2019-03-29T04:43:21.623Z,10.70
2019-03-29T04:44:21.805Z,10.50
2019-03-29T04:45:21.988Z,10.00
2019-03-29T04:46:22.175Z,10.30
2019-03-29T04:47:22.365Z,9.80
2019-03-29T04:48:22.589Z,9.80
2019-03-29T04:49:22.734Z,10.10
2019-03-29T04:50:22.921Z,10.30
2019-03-29T04:51:23.105Z,9.10
2019-03-29T04:52:23.289Z,9.50
2019-03-29T04:53:23.474Z,9.10
2019-03-29T04:54:23.668Z,9.50
2019-03-29T04:55:23.849Z,9.80
2019-03-29T04:56:24.034Z,9.30
2019-03-29T04:57:24.230Z,9.40
2019-03-29T04:58:24.403Z,9.90
2019-03-29T04:59:24.590Z,9.80
2019-03-29T05:00:24.782Z,10.10
2019-03-29T05:01:24.965Z,10.00
2019-03-29T05:02:25.155Z,9.80
2019-03-29T05:03:25.349Z,9.80
2019-03-29T05:04:25.536Z,10.10
2019-03-29T05:05:25.727Z,9.90
2019-03-29T05:06:25.915Z,10.00
2019-03-29T05:07:26.100Z,10.50
2019-03-29T05:08:26.287Z,9.70
2019-03-29T05:09:26.479Z,9.80
2019-03-29T05:10:26.663Z,9.90
2019-03-29T05:11:26.845Z,9.10
2019-03-29T05:12:27.047Z,9.70
2019-03-29T05:13:27.238Z,9.40
2019-03-29T05:14:27.441Z,10.70
2019-03-29T05:15:27.628Z,9.50
2019-03-29T05:16:27.814Z,10.20
2019-03-29T05:17:27.992Z,9.40
2019-03-29T05:18:28.176Z,10.20
2019-03-29T05:19:28.363Z,9.60
2019-03-29T05:20:28.547Z,10.60
2019-03-29T05:21:28.747Z,10.40
2019-03-29T05:22:28.935Z,10.60
2019-03-29T05:23:29.129Z,10.20
2019-03-29T05:24:29.317Z,10.70
2019-03-29T05:25:29.498Z,10.20
2019-03-29T05:26:29.679Z,9.90
2019-03-29T05:27:29.872Z,10.00
2019-03-29T05:28:30.054Z,10.40
2019-03-29T05:29:30.245Z,10.30
2019-03-29T05:30:30.433Z,10.00
2019-03-29T05:31:30.619Z,10.10
2019-03-29T05:32:30.814Z,9.30
2019-03-29T05:33:31.008Z,9.20
2019-03-29T05:34:31.188Z,9.20
2019-03-29T05:35:31.384Z,10.10
2019-03-29T05:36:31.573Z,10.00
2019-03-29T05:37:31.761Z,9.20
2019-03-29T05:38:31.943Z,9.70
2019-03-29T05:39:32.128Z,9.70
2019-03-29T05:40:35.193Z,9.80
2019-03-29T05:41:32.514Z,9.70
2019-03-29T05:42:32.688Z,9.40
2019-03-29T05:43:32.878Z,10.00
2019-03-29T05:44:33.068Z,10.00
2019-03-29T05:45:33.250Z,9.50
2019-03-29T05:46:33.435Z,9.90
2019-03-29T05:47:33.620Z,9.40
2019-03-29T05:48:33.804Z,9.50
2019-03-29T05:49:33.989Z,9.40
2019-03-29T05:50:36.706Z,9.30
2019-03-29T05:51:34.371Z,9.50
2019-03-29T05:52:34.554Z,9.70
2019-03-29T05:53:34.739Z,8.50
2019-03-29T05:54:34.938Z,9.00
2019-03-29T05:55:35.121Z,9.20
2019-03-29T05:56:35.305Z,8.60
2019-03-29T05:57:35.497Z,8.90
2019-03-29T05:58:35.679Z,9.40
2019-03-29T05:59:35.864Z,9.40
2019-03-29T06:00:36.110Z,9.90
2019-03-29T06:01:36.250Z,8.70
2019-03-29T06:02:36.436Z,8.90
2019-03-29T06:03:36.622Z,9.50
2019-03-29T06:04:36.810Z,9.30
2019-03-29T06:05:37.079Z,9.30
2019-03-29T06:06:37.197Z,9.20
2019-03-29T06:07:37.419Z,8.60
2019-03-29T06:08:37.606Z,8.90
2019-03-29T06:09:37.802Z,9.80
2019-03-29T06:10:48.153Z,8.90
2019-03-29T06:11:38.177Z,8.00
2019-03-29T06:12:38.366Z,7.90
2019-03-29T06:13:38.549Z,7.70
2019-03-29T06:14:38.735Z,7.60
2019-03-29T06:15:38.931Z,7.20
2019-03-29T06:16:39.551Z,6.90
2019-03-29T06:17:48.451Z,7.30
2019-03-29T06:18:39.495Z,7.10
2019-03-29T06:19:39.686Z,7.10
2019-03-29T06:20:39.872Z,7.90
2019-03-29T06:21:40.066Z,7.30
2019-03-29T06:22:40.250Z,8.90
2019-03-29T06:23:40.439Z,8.70
2019-03-29T06:24:40.630Z,9.10
2019-03-29T06:25:40.820Z,10.00
2019-03-29T06:26:41.002Z,9.40
2019-03-29T06:27:41.198Z,8.70
2019-03-29T06:28:41.385Z,9.40
2019-03-29T06:29:41.581Z,9.60
2019-03-29T06:30:41.780Z,9.30
2019-03-29T06:31:41.955Z,9.60
2019-03-29T06:32:42.145Z,9.10
2019-03-29T06:33:44.491Z,9.20
2019-03-29T06:34:42.521Z,9.50
2019-03-29T06:35:42.711Z,10.30
2019-03-29T06:36:42.895Z,9.80
2019-03-29T06:37:43.094Z,10.00
2019-03-29T06:38:43.296Z,9.30
2019-03-29T06:39:43.493Z,10.40
2019-03-29T06:40:43.669Z,10.50
2019-03-29T06:41:43.873Z,9.60
2019-03-29T06:42:44.047Z,8.80
2019-03-29T06:43:44.249Z,7.80
2019-03-29T06:44:44.568Z,8.50
2019-03-29T06:45:48.195Z,9.10
2019-03-29T06:46:44.824Z,9.20
2019-03-29T06:47:45.015Z,8.90
2019-03-29T06:48:45.195Z,9.10
2019-03-29T06:49:45.386Z,9.90
2019-03-29T06:50:45.592Z,10.30
2019-03-29T06:51:45.765Z,9.40
2019-03-29T06:52:45.956Z,9.30
2019-03-29T06:53:46.139Z,9.90
2019-03-29T06:54:46.339Z,9.70
2019-03-29T06:55:46.529Z,9.20
2019-03-29T06:56:46.772Z,9.30
2019-03-29T06:57:46.923Z,10.20
2019-03-29T06:58:47.106Z,9.20
2019-03-29T06:59:47.294Z,9.80
2019-03-29T07:00:47.497Z,9.80
2019-03-29T07:01:47.680Z,9.20
2019-03-29T07:02:47.877Z,9.80
2019-03-29T07:03:48.063Z,9.40
2019-03-29T07:04:48.253Z,9.30
2019-03-29T07:05:48.445Z,9.10
2019-03-29T07:06:48.636Z,9.50
2019-03-29T07:07:48.827Z,10.10
2019-03-29T07:08:49.025Z,10.00
2019-03-29T07:09:49.209Z,11.00
2019-03-29T07:10:49.398Z,11.00
2019-03-29T07:11:49.583Z,11.40
2019-03-29T07:12:49.779Z,10.10
2019-03-29T07:13:57.365Z,10.70
2019-03-29T07:14:50.152Z,10.60
2019-03-29T07:15:50.358Z,10.10
2019-03-29T07:16:50.546Z,9.60
2019-03-29T07:17:50.745Z,9.80
2019-03-29T07:18:50.929Z,9.40
2019-03-29T07:19:51.124Z,9.50
2019-03-29T07:20:51.311Z,9.60
2019-03-29T07:21:51.507Z,8.70
2019-03-29T07:22:51.707Z,8.50
2019-03-29T07:23:51.908Z,8.70
2019-03-29T07:24:52.099Z,9.00
2019-03-29T07:25:52.292Z,8.20
2019-03-29T07:26:52.487Z,8.00
2019-03-29T07:27:52.690Z,8.40
2019-03-29T07:28:52.884Z,7.60
2019-03-29T07:29:53.074Z,7.90
2019-03-29T07:30:53.338Z,8.50
2019-03-29T07:31:53.472Z,8.50
2019-03-29T07:32:53.667Z,7.20
2019-03-29T07:33:53.862Z,7.50
2019-03-29T07:34:54.061Z,7.10
2019-03-29T07:35:54.268Z,6.80
2019-03-29T07:36:54.466Z,6.60
2019-03-29T07:37:54.663Z,7.00
2019-03-29T07:38:54.869Z,6.50
2019-03-29T07:39:55.061Z,6.70
2019-03-29T07:40:55.266Z,7.00
2019-03-29T07:41:55.466Z,7.50
2019-03-29T07:42:55.666Z,7.10
2019-03-29T07:43:55.859Z,6.80
2019-03-29T07:44:56.061Z,6.30
2019-03-29T07:45:56.264Z,6.50
2019-03-29T07:46:56.471Z,6.10
2019-03-29T07:47:56.668Z,6.60
2019-03-29T07:48:56.866Z,6.50
2019-03-29T07:49:57.076Z,6.50
2019-03-29T07:50:57.282Z,6.60
2019-03-29T07:51:57.476Z,6.60
2019-03-29T07:52:57.681Z,6.30
2019-03-29T07:53:57.883Z,6.40
2019-03-29T07:54:58.085Z,6.20
2019-03-29T07:55:58.287Z,6.20
2019-03-29T07:56:58.485Z,5.60
2019-03-29T07:57:58.691Z,6.00
2019-03-29T07:58:58.895Z,5.70
2019-03-29T07:59:59.084Z,5.20
2019-03-29T08:00:59.287Z,5.80
2019-03-29T08:01:59.491Z,5.80
2019-03-29T08:02:59.706Z,5.50
2019-03-29T08:03:59.895Z,5.40
2019-03-29T08:05:00.385Z,5.60
2019-03-29T08:06:00.298Z,4.70
2019-03-29T08:07:00.513Z,5.80
2019-03-29T08:08:00.711Z,4.80
2019-03-29T08:09:01.273Z,5.40
2019-03-29T08:10:03.698Z,5.10
2019-03-29T08:11:01.298Z,4.80
2019-03-29T08:12:01.504Z,4.80
2019-03-29T08:13:01.718Z,4.70
2019-03-29T08:14:01.911Z,4.60
2019-03-29T08:15:02.113Z,4.50
2019-03-29T08:16:02.323Z,3.90
2019-03-29T08:17:02.520Z,4.40
2019-03-29T08:18:02.724Z,4.20
2019-03-29T08:19:02.925Z,4.30
2019-03-29T08:20:36.617Z,4.30
2019-03-29T08:21:03.330Z,4.60
2019-03-29T08:22:03.548Z,4.50
2019-03-29T08:23:03.736Z,4.20
2019-03-29T08:24:03.945Z,4.40
2019-03-29T08:25:04.142Z,3.70
2019-03-29T08:26:04.372Z,4.50
2019-03-29T08:27:04.568Z,4.10
2019-03-29T08:28:04.781Z,4.00
2019-03-29T08:29:05.001Z,3.70
2019-03-29T08:30:05.169Z,3.60
2019-03-29T08:31:05.389Z,3.90
2019-03-29T08:32:05.585Z,3.80
2019-03-29T08:33:05.777Z,3.70
2019-03-29T08:34:05.982Z,3.90
2019-03-29T08:35:06.191Z,4.30
2019-03-29T08:36:06.393Z,3.70
2019-03-29T08:37:06.597Z,3.50
2019-03-29T08:38:06.807Z,3.70
2019-03-29T08:39:10.107Z,4.20
2019-03-29T08:40:07.221Z,4.00
2019-03-29T08:41:07.427Z,4.00
2019-03-29T08:42:07.634Z,3.80
2019-03-29T08:43:07.837Z,3.50
2019-03-29T08:44:11.557Z,3.70
2019-03-29T08:45:08.246Z,3.20
2019-03-29T08:46:08.447Z,3.40
2019-03-29T08:47:08.670Z,3.30
2019-03-29T08:48:08.855Z,3.10
2019-03-29T08:49:09.055Z,3.10
2019-03-29T08:50:09.262Z,3.40
2019-03-29T08:51:09.464Z,3.20
2019-03-29T08:52:09.659Z,3.10
2019-03-29T08:53:09.862Z,2.60
2019-03-29T08:54:10.063Z,2.10
2019-03-29T08:55:10.268Z,2.40
2019-03-29T08:56:10.472Z,2.10
2019-03-29T08:57:10.938Z,2.70
2019-03-29T08:58:10.885Z,2.60
2019-03-29T08:59:11.081Z,2.70
2019-03-29T09:00:11.288Z,2.90
2019-03-29T09:01:11.481Z,2.70
2019-03-29T09:02:11.688Z,3.00
2019-03-29T09:03:11.893Z,2.70
2019-03-29T09:04:12.098Z,2.80
2019-03-29T09:05:12.299Z,3.20
2019-03-29T09:06:12.510Z,3.60
2019-03-29T09:07:12.715Z,3.60
2019-03-29T09:08:12.912Z,3.30
2019-03-29T09:09:13.122Z,3.20
2019-03-29T09:10:13.320Z,2.80
2019-03-29T09:11:13.521Z,2.10
2019-03-29T09:12:14.982Z,2.20
2019-03-29T09:13:13.942Z,2.00
2019-03-29T09:14:14.146Z,2.20
2019-03-29T09:15:14.357Z,2.20
2019-03-29T09:16:14.559Z,2.00
2019-03-29T09:17:14.760Z,1.80
2019-03-29T09:18:14.962Z,1.80
2019-03-29T09:19:15.168Z,1.90
2019-03-29T09:20:15.372Z,1.50
2019-03-29T09:21:15.577Z,1.70
2019-03-29T09:22:15.779Z,1.80
2019-03-29T09:23:15.985Z,1.80
2019-03-29T09:24:22.181Z,1.70
2019-03-29T09:25:16.402Z,1.60
2019-03-29T09:26:16.617Z,1.90
2019-03-29T09:27:16.821Z,2.40
2019-03-29T09:28:17.023Z,2.00
2019-03-29T09:29:17.235Z,2.10
2019-03-29T09:30:17.436Z,2.30
2019-03-29T09:31:17.644Z,2.20
2019-03-29T09:32:17.856Z,2.30
2019-03-29T09:33:18.061Z,2.10
2019-03-29T09:34:18.264Z,2.30
2019-03-29T09:35:18.470Z,2.30
2019-03-29T09:36:18.679Z,2.00
2019-03-29T09:37:18.902Z,2.30
2019-03-29T09:38:19.090Z,2.20
2019-03-29T09:39:19.284Z,2.30
2019-03-29T09:40:19.475Z,2.60
2019-03-29T09:41:19.672Z,2.60
2019-03-29T09:42:28.852Z,2.20
2019-03-29T09:43:20.081Z,2.30
2019-03-29T09:44:20.285Z,2.10
2019-03-29T09:45:20.496Z,2.50
2019-03-29T09:46:20.700Z,2.30
2019-03-29T09:47:20.905Z,2.30
2019-03-29T09:48:21.106Z,2.40
2019-03-29T09:49:21.345Z,2.70
2019-03-29T09:50:23.083Z,2.40
2019-03-29T09:51:21.716Z,2.60
2019-03-29T09:52:21.919Z,2.40
2019-03-29T09:53:22.112Z,2.60
2019-03-29T09:54:22.317Z,2.30
2019-03-29T09:55:22.524Z,2.50
2019-03-29T09:56:22.723Z,2.60
2019-03-29T09:57:36.973Z,2.70
2019-03-29T09:58:23.133Z,2.40
2019-03-29T09:59:23.426Z,2.50
2019-03-29T10:00:23.857Z,2.80
2019-03-29T10:01:23.761Z,2.80
2019-03-29T10:02:23.963Z,2.80
2019-03-29T10:03:24.173Z,2.90
2019-03-29T10:04:24.374Z,2.90
2019-03-29T10:05:24.572Z,2.90
2019-03-29T10:06:24.778Z,3.10
2019-03-29T10:07:24.979Z,3.10
2019-03-29T10:08:25.192Z,3.20
2019-03-29T10:09:26.002Z,3.00
2019-03-29T10:10:25.576Z,3.20
2019-03-29T10:11:25.780Z,3.40
2019-03-29T10:12:25.981Z,2.90
2019-03-29T10:13:26.192Z,3.10
2019-03-29T10:14:26.393Z,3.10
2019-03-29T10:15:26.591Z,2.90
2019-03-29T10:16:26.787Z,3.00
2019-03-29T10:17:26.987Z,2.80
2019-03-29T10:18:27.191Z,2.80
2019-03-29T10:19:27.390Z,2.70
2019-03-29T10:20:27.604Z,2.50
2019-03-29T10:21:27.805Z,2.60
2019-03-29T10:22:28.002Z,2.90
2019-03-29T10:23:28.206Z,2.80
2019-03-29T10:24:28.407Z,2.60
2019-03-29T10:25:28.608Z,2.40
2019-03-29T10:26:28.827Z,2.50
2019-03-29T10:27:29.030Z,2.50
2019-03-29T10:28:29.229Z,2.30
2019-03-29T10:29:29.431Z,2.50
2019-03-29T10:30:29.636Z,2.60
2019-03-29T10:31:32.638Z,2.40
2019-03-29T10:32:30.046Z,2.40
2019-03-29T10:33:30.246Z,2.40
2019-03-29T10:34:30.451Z,2.70
2019-03-29T10:35:30.651Z,2.50
2019-03-29T10:36:30.858Z,2.30
2019-03-29T10:37:31.070Z,2.50
2019-03-29T10:38:31.270Z,2.60
2019-03-29T10:39:31.487Z,2.70
2019-03-29T10:40:31.681Z,2.70
2019-03-29T10:41:34.526Z,2.60
2019-03-29T10:42:32.090Z,2.70
2019-03-29T10:43:32.279Z,2.70
2019-03-29T10:44:32.491Z,2.40
2019-03-29T10:45:38.005Z,2.60
2019-03-29T10:46:32.887Z,2.50
2019-03-29T10:47:43.130Z,2.80
2019-03-29T10:48:33.289Z,3.00
2019-03-29T10:49:33.497Z,2.90
2019-03-29T10:50:33.701Z,3.10
2019-03-29T10:51:33.912Z,3.20
2019-03-29T10:52:34.099Z,3.10
2019-03-29T10:53:34.290Z,2.80
2019-03-29T10:54:34.500Z,2.70
2019-03-29T10:55:34.715Z,3.00
2019-03-29T10:56:34.921Z,3.00
2019-03-29T10:57:35.116Z,2.90
2019-03-29T10:58:35.323Z,3.10
2019-03-29T10:59:35.528Z,3.30
2019-03-29T11:00:35.742Z,2.90
2019-03-29T11:01:35.921Z,3.10
2019-03-29T11:02:36.139Z,3.10
2019-03-29T11:03:36.381Z,3.00
2019-03-29T11:04:36.590Z,3.10
2019-03-29T11:05:36.799Z,2.80
2019-03-29T11:06:36.979Z,2.80
2019-03-29T11:07:37.185Z,3.20
2019-03-29T11:08:37.386Z,3.50
2019-03-29T11:09:37.594Z,2.80
2019-03-29T11:10:37.826Z,3.00
2019-03-29T11:11:38.038Z,3.30
2019-03-29T11:12:38.246Z,3.60
2019-03-29T11:13:40.935Z,3.30
2019-03-29T11:14:38.674Z,3.30
2019-03-29T11:15:38.860Z,3.30
2019-03-29T11:16:39.048Z,3.40
2019-03-29T11:17:39.256Z,3.30
2019-03-29T11:18:39.460Z,3.20
2019-03-29T11:19:39.689Z,3.30
2019-03-29T11:20:39.897Z,2.90
2019-03-29T11:21:40.092Z,3.30
2019-03-29T11:22:40.295Z,3.20
2019-03-29T11:23:40.487Z,3.20
2019-03-29T11:24:40.695Z,3.40
2019-03-29T11:25:40.899Z,3.30
2019-03-29T11:26:41.102Z,3.10
2019-03-29T11:27:41.309Z,3.20
2019-03-29T11:28:41.483Z,3.30
2019-03-29T11:29:41.700Z,3.60
2019-03-29T11:30:42.937Z,4.00
2019-03-29T11:31:42.127Z,3.20
2019-03-29T11:32:42.329Z,3.50
2019-03-29T11:33:42.526Z,3.40
2019-03-29T11:34:42.703Z,3.10
2019-03-29T11:35:42.928Z,3.30
2019-03-29T11:36:43.127Z,3.50
2019-03-29T11:37:43.332Z,3.60
2019-03-29T11:38:43.537Z,3.30
2019-03-29T11:39:43.742Z,3.20
2019-03-29T11:40:43.945Z,3.60
2019-03-29T11:41:44.152Z,3.30
2019-03-29T11:42:44.348Z,3.20
2019-03-29T11:43:44.548Z,3.30
2019-03-29T11:44:44.750Z,3.50
2019-03-29T11:45:44.953Z,3.70
2019-03-29T11:46:45.151Z,3.80
2019-03-29T11:47:45.353Z,3.50
2019-03-29T11:48:45.556Z,3.30
2019-03-29T11:49:45.755Z,3.50
2019-03-29T11:50:45.949Z,3.20
2019-03-29T11:51:46.144Z,3.50
2019-03-29T11:52:46.341Z,3.20
2019-03-29T11:53:46.538Z,3.90
2019-03-29T11:54:46.747Z,3.60
2019-03-29T11:55:46.962Z,3.50
2019-03-29T11:56:47.805Z,3.30
2019-03-29T11:57:47.358Z,3.40
2019-03-29T11:58:47.555Z,3.50
2019-03-29T11:59:47.774Z,3.40
2019-03-29T12:00:47.971Z,3.70
2019-03-29T12:01:48.166Z,4.10
2019-03-29T12:02:48.365Z,3.50
2019-03-29T12:03:48.564Z,3.70
2019-03-29T12:04:48.763Z,3.50
2019-03-29T12:05:48.955Z,3.90
2019-03-29T12:06:49.154Z,4.00
2019-03-29T12:07:49.349Z,4.00
2019-03-29T12:08:49.543Z,3.80
2019-03-29T12:09:49.741Z,3.90
2019-03-29T12:10:49.936Z,4.20
2019-03-29T12:11:50.130Z,3.70
2019-03-29T12:12:50.336Z,3.90
2019-03-29T12:13:50.527Z,4.00
2019-03-29T12:14:50.720Z,4.10
2019-03-29T12:15:50.918Z,4.20
2019-03-29T12:16:51.118Z,3.60
2019-03-29T12:17:51.333Z,4.10
2019-03-29T12:18:51.504Z,4.10
2019-03-29T12:19:51.699Z,4.10
2019-03-29T12:20:54.372Z,3.80
2019-03-29T12:21:52.094Z,4.50
2019-03-29T12:22:52.287Z,4.40
2019-03-29T12:23:52.493Z,4.50
2019-03-29T12:24:52.679Z,4.90
2019-03-29T12:25:52.868Z,4.50
2019-03-29T12:26:55.033Z,4.70
2019-03-29T12:27:53.254Z,4.40
2019-03-29T12:28:53.458Z,4.80
2019-03-29T12:29:53.651Z,4.60
2019-03-29T12:30:53.855Z,4.50
2019-03-29T12:31:54.126Z,4.60
2019-03-29T12:32:54.289Z,4.80
2019-03-29T12:33:54.489Z,5.00
2019-03-29T12:34:54.690Z,4.60
2019-03-29T12:35:54.875Z,4.60
2019-03-29T12:36:55.078Z,4.40
2019-03-29T12:37:55.270Z,4.70
2019-03-29T12:38:55.472Z,3.80
2019-03-29T12:39:55.663Z,4.60
2019-03-29T12:40:55.858Z,4.50
2019-03-29T12:41:56.060Z,4.70
2019-03-29T12:42:56.256Z,4.20
2019-03-29T12:43:56.453Z,4.50
2019-03-29T12:44:56.646Z,4.20
2019-03-29T12:45:56.840Z,4.00
2019-03-29T12:46:57.031Z,4.50
2019-03-29T12:47:57.207Z,4.50
2019-03-29T12:48:57.398Z,5.00
2019-03-29T12:49:57.591Z,4.70
2019-03-29T12:50:57.781Z,4.30
2019-03-29T12:51:57.973Z,4.30
2019-03-29T12:52:58.160Z,4.50
2019-03-29T12:53:58.356Z,4.60
2019-03-29T12:54:58.545Z,4.50
2019-03-29T12:55:58.744Z,4.30
2019-03-29T12:56:58.930Z,4.40
2019-03-29T12:57:59.124Z,4.30
2019-03-29T12:58:59.302Z,5.00
2019-03-29T12:59:59.494Z,5.00
2019-03-29T13:00:59.686Z,4.90
2019-03-29T13:01:59.885Z,5.30
2019-03-29T13:03:00.073Z,4.70
2019-03-29T13:04:00.265Z,4.40
2019-03-29T13:05:00.482Z,3.80
2019-03-29T13:06:00.663Z,5.40
2019-03-29T13:07:00.850Z,4.80
2019-03-29T13:08:01.049Z,4.50
2019-03-29T13:09:01.237Z,4.50
2019-03-29T13:10:01.426Z,4.30
2019-03-29T13:11:01.612Z,4.30
2019-03-29T13:12:01.821Z,4.80
2019-03-29T13:13:02.010Z,4.60
2019-03-29T13:14:10.203Z,4.80
2019-03-29T13:15:02.403Z,4.10
2019-03-29T13:16:02.586Z,4.40
2019-03-29T13:17:03.063Z,4.30
2019-03-29T13:18:02.978Z,4.50
2019-03-29T13:19:03.166Z,4.40